Quecreek, Pennsylvania
Current Conditions -  °F | °C
As of 5:54 AM on Wednesday 26 Nov 2014 (Local Time) from KJST Reporting Station
Overcast Overcast  
Wind Chill: 22°   Ceiling: 10000
Heat Index: 29°   Visibility: 10mi
Dew Point: 23°   Wind: 7mph
Humidity: 78%   Direction: 40°NE
Pressure: 30.01"   Gusts: NA
Location:  40.09°N, 79.08°W
Report Text: KJST 261054Z AUTO 04006KT 10SM OVC100 M02/M05 A3001 RMK AO2 SLP183 T10171050
Loading
Personal Weather Stations






























Interactive Weather Map New forecast layout! Learn more

10-Day Weather Forecast

Advertisements
Track Severe Weather on mobile